createdAt,value
2018-01-03T00:00:48.726Z,6.87
2018-01-03T00:03:27.298Z,6.07
2018-01-03T00:06:05.582Z,6.12
2018-01-03T00:08:45.405Z,2.10
2018-01-03T00:11:24.751Z,5.62
2018-01-03T00:14:02.586Z,4.72
2018-01-03T00:16:42.657Z,6.40
2018-01-03T00:19:14.014Z,5.68
2018-01-03T00:21:48.864Z,7.22
2018-01-03T00:24:19.818Z,4.07
2018-01-03T00:26:58.825Z,4.85
2018-01-03T00:29:32.033Z,4.20
2018-01-03T00:32:08.777Z,4.35
2018-01-03T00:34:47.014Z,4.03
2018-01-03T00:37:26.396Z,2.55
2018-01-03T00:40:04.992Z,3.85
2018-01-03T00:42:33.370Z,5.07
2018-01-03T00:45:00.317Z,2.85
2018-01-03T00:47:40.192Z,2.80
2018-01-03T00:50:08.775Z,4.93
2018-01-03T00:52:35.643Z,5.45
2018-01-03T00:55:16.569Z,2.50
2018-01-03T00:57:56.419Z,2.90
2018-01-03T01:00:24.314Z,2.97
2018-01-03T01:03:04.186Z,4.30
2018-01-03T01:05:33.619Z,3.22
2018-01-03T01:08:01.600Z,1.58
2018-01-03T01:10:29.198Z,2.33
2018-01-03T01:13:01.935Z,1.70
2018-01-03T01:15:42.342Z,3.43
2018-01-03T01:18:19.091Z,2.30
2018-01-03T01:20:46.722Z,3.10
2018-01-03T01:23:13.662Z,8.48
2018-01-03T01:25:40.545Z,1.90
2018-01-03T01:28:14.671Z,2.10
2018-01-03T01:30:43.308Z,2.47
2018-01-03T01:33:10.292Z,1.63
2018-01-03T01:35:42.425Z,3.37
2018-01-03T01:38:17.077Z,3.30
2018-01-03T01:40:44.026Z,4.50
2018-01-03T01:43:12.708Z,2.30
2018-01-03T01:45:56.849Z,2.80
2018-01-03T01:48:25.513Z,2.55
2018-01-03T01:51:04.881Z,3.25
2018-01-03T01:53:47.063Z,5.85
2018-01-03T01:56:27.586Z,3.30
2018-01-03T01:59:11.913Z,2.10
2018-01-03T02:04:36.179Z,4.40
2018-01-03T02:07:19.157Z,2.73
2018-01-03T02:10:00.919Z,2.42
2018-01-03T02:15:31.771Z,3.10
2018-01-03T02:18:14.263Z,1.87
2018-01-03T02:23:40.031Z,4.03
2018-01-03T02:26:21.967Z,3.73
2018-01-03T02:29:07.581Z,3.47
2018-01-03T02:34:34.760Z,2.20
2018-01-03T02:37:17.461Z,3.00
2018-01-03T02:39:59.876Z,2.97
2018-01-03T02:48:11.478Z,2.53
2018-01-03T02:53:38.379Z,1.93
2018-01-03T02:56:20.136Z,3.13
2018-01-03T03:01:46.357Z,6.75
2018-01-03T03:04:32.333Z,2.05
2018-01-03T03:10:02.035Z,2.50
2018-01-03T03:12:43.967Z,2.60
2018-01-03T03:15:24.912Z,2.70
2018-01-03T03:18:06.281Z,2.50
2018-01-03T03:20:50.435Z,2.08
2018-01-03T03:23:31.615Z,2.80
2018-01-03T03:26:13.703Z,4.70
2018-01-03T03:28:57.606Z,2.00
2018-01-03T03:31:39.016Z,2.07
2018-01-03T03:37:08.825Z,3.03
2018-01-03T03:39:50.240Z,2.03
2018-01-03T03:42:31.404Z,3.13
2018-01-03T03:45:24.535Z,1.83
2018-01-03T03:48:07.078Z,2.10
2018-01-03T03:50:47.590Z,3.33
2018-01-03T03:53:27.823Z,1.70
2018-01-03T03:56:08.502Z,2.13
2018-01-03T03:58:53.315Z,2.57
2018-01-03T04:01:33.905Z,2.90
2018-01-03T04:04:17.596Z,5.83
2018-01-03T04:07:01.038Z,1.60
2018-01-03T04:09:40.115Z,1.20
2018-01-03T04:15:06.633Z,1.80
2018-01-03T04:20:29.263Z,3.30
2018-01-03T04:23:11.364Z,1.03
2018-01-03T04:25:52.047Z,1.43
2018-01-03T04:28:34.799Z,1.57
2018-01-03T04:31:18.135Z,0.97
2018-01-03T04:33:59.824Z,1.73
2018-01-03T04:36:39.967Z,1.97
2018-01-03T04:39:24.691Z,2.97
2018-01-03T04:42:09.178Z,1.20
2018-01-03T04:50:18.649Z,2.30
2018-01-03T04:53:00.762Z,1.97
2018-01-03T04:58:28.432Z,2.57
2018-01-03T05:01:10.098Z,1.93
2018-01-03T05:03:53.139Z,1.30
2018-01-03T05:06:32.912Z,1.53
2018-01-03T05:09:16.404Z,1.40
2018-01-03T05:11:58.374Z,1.20
2018-01-03T05:14:40.258Z,1.60
2018-01-03T05:17:22.615Z,1.43
2018-01-03T05:20:02.414Z,1.73
2018-01-03T05:22:44.550Z,1.40
2018-01-03T05:28:13.635Z,3.27
2018-01-03T05:30:56.853Z,1.27
2018-01-03T05:33:39.094Z,1.07
2018-01-03T05:36:21.272Z,2.60
2018-01-03T05:39:04.034Z,1.07
2018-01-03T05:44:33.107Z,1.20
2018-01-03T05:49:58.455Z,1.00
2018-01-03T05:57:59.322Z,1.37
2018-01-03T06:00:43.114Z,1.20
2018-01-03T06:06:12.945Z,1.93
2018-01-03T06:08:53.730Z,1.23
2018-01-03T06:11:38.061Z,1.07
2018-01-03T06:14:18.848Z,1.03
2018-01-03T06:19:47.563Z,2.37
2018-01-03T06:22:32.667Z,2.97
2018-01-03T06:28:05.783Z,0.43
2018-01-03T06:33:36.331Z,1.03
2018-01-03T06:36:18.892Z,0.50
2018-01-03T06:39:00.949Z,1.60
2018-01-03T06:44:29.357Z,0.67
2018-01-03T06:49:56.602Z,0.60
2018-01-03T06:52:40.631Z,2.93
2018-01-03T06:55:21.396Z,0.63
2018-01-03T06:58:07.537Z,1.70
2018-01-03T07:00:48.852Z,0.50
2018-01-03T07:03:31.740Z,2.27
2018-01-03T07:06:14.860Z,0.80
2018-01-03T07:09:01.028Z,8.10
2018-01-03T07:14:31.155Z,1.10
2018-01-03T07:19:58.773Z,1.23
2018-01-03T07:22:42.614Z,1.33
2018-01-03T07:28:10.914Z,1.43
2018-01-03T07:33:39.811Z,2.70
2018-01-03T07:36:23.897Z,2.13
2018-01-03T07:39:10.126Z,0.70
2018-01-03T07:41:51.403Z,0.60
2018-01-03T07:44:34.248Z,2.00
2018-01-03T07:47:20.593Z,2.90
2018-01-03T07:52:47.763Z,7.63
2018-01-03T07:58:17.084Z,1.20
2018-01-03T08:01:00.151Z,0.93
2018-01-03T08:03:29.045Z,4.17
2018-01-03T08:05:56.974Z,2.10
2018-01-03T08:08:25.944Z,2.60
2018-01-03T08:10:54.939Z,1.77
2018-01-03T08:13:23.180Z,0.83
2018-01-03T08:15:52.086Z,2.10
2018-01-03T08:18:20.079Z,1.40
2018-01-03T08:20:47.029Z,2.33
2018-01-03T08:23:14.062Z,1.43
2018-01-03T08:25:40.915Z,2.40
2018-01-03T08:28:07.854Z,1.43
2018-01-03T08:30:34.812Z,5.70
2018-01-03T08:33:01.686Z,1.83
2018-01-03T08:35:31.421Z,0.83
2018-01-03T08:37:59.099Z,1.33
2018-01-03T08:40:26.052Z,0.97
2018-01-03T08:42:52.999Z,0.50
2018-01-03T08:45:19.935Z,1.07
2018-01-03T08:47:46.866Z,1.80
2018-01-03T08:50:14.511Z,2.20
2018-01-03T08:52:41.443Z,0.70
2018-01-03T08:55:08.496Z,1.37
2018-01-03T08:57:35.469Z,1.13
2018-01-03T09:00:02.401Z,0.83
2018-01-03T09:02:29.270Z,2.27
2018-01-03T09:04:56.207Z,3.87
2018-01-03T09:07:23.187Z,1.40
2018-01-03T09:09:50.070Z,1.00
2018-01-03T09:12:17.096Z,1.63
2018-01-03T09:14:43.950Z,1.63
2018-01-03T09:17:10.931Z,3.00
2018-01-03T09:19:38.536Z,1.70
2018-01-03T09:22:05.399Z,2.53
2018-01-03T09:24:32.361Z,3.77
2018-01-03T09:26:59.413Z,2.20
2018-01-03T09:29:26.393Z,4.73
2018-01-03T09:31:53.265Z,2.03
2018-01-03T09:34:20.184Z,3.93
2018-01-03T09:36:47.811Z,2.50
2018-01-03T09:39:14.758Z,3.43
2018-01-03T09:41:41.722Z,4.97
2018-01-03T09:44:08.679Z,5.13
2018-01-03T09:46:35.552Z,5.23
2018-01-03T09:49:02.419Z,3.43
2018-01-03T09:51:29.339Z,3.40
2018-01-03T09:53:56.291Z,5.50
2018-01-03T09:56:23.192Z,1.77
2018-01-03T09:59:04.124Z,3.23
2018-01-03T10:01:44.347Z,3.10
2018-01-03T10:04:22.247Z,5.80
2018-01-03T10:07:03.553Z,4.33
2018-01-03T10:12:26.141Z,7.07
2018-01-03T10:15:07.122Z,10.87
2018-01-03T10:20:36.731Z,2.60
2018-01-03T10:23:18.961Z,2.93
2018-01-03T10:26:02.137Z,2.20
2018-01-03T10:28:45.534Z,1.57
2018-01-03T10:31:26.547Z,5.60
2018-01-03T10:34:08.164Z,6.00
2018-01-03T10:36:48.254Z,2.30
2018-01-03T10:39:29.641Z,2.30
2018-01-03T10:42:10.069Z,1.67
2018-01-03T10:44:46.827Z,1.40
2018-01-03T10:47:29.286Z,1.03
2018-01-03T10:50:12.268Z,2.33
2018-01-03T10:52:51.083Z,4.87
2018-01-03T10:55:31.881Z,2.00
2018-01-03T10:58:13.461Z,1.00
2018-01-03T11:00:52.627Z,2.87
2018-01-03T11:03:49.490Z,1.27
2018-01-03T11:06:32.607Z,1.63
2018-01-03T11:09:12.201Z,0.70
2018-01-03T11:11:50.533Z,3.00
2018-01-03T11:19:54.293Z,1.13
2018-01-03T11:22:36.417Z,6.00
2018-01-03T11:25:20.557Z,6.23
2018-01-03T11:28:01.538Z,6.80
2018-01-03T11:30:45.538Z,6.33
2018-01-03T11:41:38.286Z,4.90
2018-01-03T11:47:02.141Z,5.87
2018-01-03T11:49:43.952Z,2.30
2018-01-03T11:52:25.830Z,6.00
2018-01-03T11:55:07.463Z,2.77
2018-01-03T11:57:50.401Z,4.53
2018-01-03T12:00:30.882Z,4.70
2018-01-03T12:05:58.470Z,4.73
2018-01-03T12:08:39.914Z,4.73
2018-01-03T12:11:22.618Z,4.83
2018-01-03T12:16:48.697Z,6.83
2018-01-03T12:19:30.199Z,3.13
2018-01-03T12:22:15.000Z,3.23
2018-01-03T12:24:56.357Z,4.60
2018-01-03T12:27:38.950Z,6.57
2018-01-03T12:33:07.610Z,4.00
2018-01-03T12:35:46.359Z,5.00
2018-01-03T12:38:27.238Z,8.43
2018-01-03T12:41:02.710Z,5.67
2018-01-03T12:43:46.499Z,7.53
2018-01-03T12:49:09.192Z,8.37
2018-01-03T12:54:37.164Z,7.30
2018-01-03T13:00:03.746Z,9.30
2018-01-03T13:02:43.494Z,7.20
2018-01-03T13:05:25.102Z,4.63
2018-01-03T13:08:05.755Z,8.73
2018-01-03T13:10:47.822Z,7.57
2018-01-03T13:13:27.993Z,9.03
2018-01-03T13:18:48.624Z,9.37
2018-01-03T13:21:31.432Z,3.57
2018-01-03T13:24:11.632Z,3.57
2018-01-03T13:26:53.583Z,5.07
2018-01-03T13:29:34.703Z,5.60
2018-01-03T13:34:59.407Z,7.97
2018-01-03T13:37:42.057Z,4.70
2018-01-03T13:40:20.444Z,7.27
2018-01-03T13:43:02.259Z,11.07
2018-01-03T13:45:42.105Z,7.70
2018-01-03T13:48:22.839Z,5.93
2018-01-03T13:51:03.868Z,9.47
2018-01-03T13:53:47.553Z,6.47
2018-01-03T13:59:16.103Z,11.60
2018-01-03T14:01:44.525Z,12.33
2018-01-03T14:04:12.561Z,15.97
2018-01-03T14:06:39.426Z,12.83
2018-01-03T14:09:06.451Z,4.77
2018-01-03T14:11:33.409Z,5.93
2018-01-03T14:14:01.450Z,7.33
2018-01-03T14:16:41.117Z,7.13
2018-01-03T14:19:22.303Z,6.83
2018-01-03T14:22:10.163Z,8.80
2018-01-03T14:24:51.982Z,9.30
2018-01-03T14:27:30.589Z,6.13
2018-01-03T14:30:16.599Z,9.20
2018-01-03T14:32:59.573Z,9.70
2018-01-03T14:38:23.083Z,10.10
2018-01-03T14:41:07.920Z,9.87
2018-01-03T14:43:47.991Z,8.00
2018-01-03T14:46:29.367Z,5.63
2018-01-03T14:52:00.504Z,11.77
2018-01-03T14:54:43.216Z,8.93
2018-01-03T14:57:25.541Z,12.90
2018-01-03T15:02:53.657Z,4.33
2018-01-03T15:11:02.225Z,11.73
2018-01-03T15:13:41.696Z,4.87
2018-01-03T15:16:23.204Z,6.03
2018-01-03T15:24:39.726Z,11.50
2018-01-03T15:27:21.592Z,9.90
2018-01-03T15:30:03.577Z,6.13
2018-01-03T15:32:45.510Z,6.97
2018-01-03T15:35:26.697Z,5.73
2018-01-03T15:38:06.855Z,5.43
2018-01-03T15:40:53.387Z,4.50
2018-01-03T15:43:35.143Z,8.43
2018-01-03T15:49:02.915Z,10.70
2018-01-03T15:57:14.225Z,5.67
2018-01-03T15:59:57.626Z,10.50
2018-01-03T16:08:02.636Z,4.20
2018-01-03T16:13:30.108Z,6.70
2018-01-03T16:18:55.436Z,10.23
2018-01-03T16:21:37.108Z,6.00
2018-01-03T16:24:17.755Z,8.53
2018-01-03T16:27:02.029Z,9.13
2018-01-03T16:29:44.555Z,5.90
2018-01-03T16:32:26.418Z,12.77
2018-01-03T16:35:05.851Z,4.10
2018-01-03T16:37:44.660Z,8.90
2018-01-03T16:40:24.816Z,7.43
2018-01-03T16:43:07.791Z,8.37
2018-01-03T16:48:31.423Z,5.60
2018-01-03T16:51:12.009Z,4.10
2018-01-03T16:53:51.884Z,9.07
2018-01-03T16:56:33.141Z,4.83
2018-01-03T16:59:13.599Z,6.90
2018-01-03T17:01:54.214Z,7.47
2018-01-03T17:07:21.365Z,9.20
2018-01-03T17:12:47.039Z,6.53
2018-01-03T17:18:13.464Z,5.67
2018-01-03T17:20:54.919Z,4.03
2018-01-03T17:23:45.610Z,3.50
2018-01-03T17:31:53.614Z,4.83
2018-01-03T17:34:34.861Z,2.63
2018-01-03T17:37:16.742Z,4.63
2018-01-03T17:40:00.853Z,4.57
2018-01-03T17:45:27.151Z,7.60
2018-01-03T17:50:52.715Z,8.60
2018-01-03T17:56:18.298Z,10.23
2018-01-03T17:59:01.027Z,9.87
2018-01-03T18:01:42.000Z,4.97
2018-01-03T18:04:22.746Z,6.87
2018-01-03T18:07:05.334Z,12.37
2018-01-03T18:12:32.644Z,6.75
2018-01-03T18:15:13.345Z,8.32
2018-01-03T18:17:56.425Z,9.30
2018-01-03T18:20:39.625Z,8.13
2018-01-03T18:23:19.332Z,6.40
2018-01-03T18:26:00.799Z,10.73
2018-01-03T18:28:41.358Z,8.07
2018-01-03T18:34:12.848Z,13.93
2018-01-03T18:36:53.247Z,13.30
2018-01-03T18:39:35.857Z,13.77
2018-01-03T18:42:16.754Z,12.73
2018-01-03T18:47:43.863Z,10.27
2018-01-03T18:50:26.345Z,12.90
2018-01-03T18:53:09.271Z,14.07
2018-01-03T18:55:50.706Z,15.13
2018-01-03T18:58:31.836Z,9.13
2018-01-03T19:01:13.078Z,10.32
2018-01-03T19:03:57.306Z,6.77
2018-01-03T19:06:39.790Z,6.40
2018-01-03T19:09:20.236Z,9.30
2018-01-03T19:12:00.412Z,6.30
2018-01-03T19:14:40.881Z,9.00
2018-01-03T19:17:24.375Z,6.53
2018-01-03T19:20:09.552Z,7.30
2018-01-03T19:25:38.713Z,6.97
2018-01-03T19:28:21.319Z,6.03
2018-01-03T19:31:01.911Z,4.77
2018-01-03T19:33:42.464Z,8.93
2018-01-03T19:36:23.448Z,7.47
2018-01-03T19:39:01.174Z,12.93
2018-01-03T19:41:43.792Z,8.15
2018-01-03T19:44:24.902Z,12.07
2018-01-03T19:47:08.267Z,11.03
2018-01-03T19:49:51.440Z,9.13
2018-01-03T19:55:19.324Z,10.50
2018-01-03T19:58:00.043Z,7.57
2018-01-03T20:00:42.524Z,9.10
2018-01-03T20:03:25.050Z,6.80
2018-01-03T20:06:06.196Z,5.53
2018-01-03T20:08:33.819Z,12.03
2018-01-03T20:11:00.691Z,7.77
2018-01-03T20:13:40.916Z,9.57
2018-01-03T20:19:06.776Z,18.77
2018-01-03T20:21:34.421Z,15.83
2018-01-03T20:24:14.953Z,7.40
2018-01-03T20:26:57.045Z,14.20
2018-01-03T20:29:25.603Z,9.60
2018-01-03T20:31:52.566Z,8.53
2018-01-03T20:34:19.515Z,13.10
2018-01-03T20:36:46.516Z,7.90
2018-01-03T20:39:14.386Z,13.37
2018-01-03T20:41:42.184Z,16.57
2018-01-03T20:44:09.058Z,13.53
2018-01-03T20:46:36.085Z,16.40
2018-01-03T20:49:03.071Z,9.83
2018-01-03T20:51:30.039Z,12.60
2018-01-03T20:53:57.838Z,9.70
2018-01-03T20:56:24.860Z,16.07
2018-01-03T20:58:52.676Z,12.10
2018-01-03T21:01:19.686Z,16.52
2018-01-03T21:03:46.792Z,19.37
2018-01-03T21:06:13.691Z,16.87
2018-01-03T21:08:40.680Z,10.50
2018-01-03T21:11:07.549Z,16.33
2018-01-03T21:13:34.664Z,12.73
2018-01-03T21:16:04.717Z,15.83
2018-01-03T21:18:45.082Z,17.03
2018-01-03T21:21:20.603Z,12.83
2018-01-03T21:24:03.751Z,13.20
2018-01-03T21:26:31.683Z,18.90
2018-01-03T21:28:59.832Z,10.30
2018-01-03T21:31:28.207Z,12.77
2018-01-03T21:33:55.222Z,14.73
2018-01-03T21:36:22.232Z,14.03
2018-01-03T21:38:50.429Z,13.93
2018-01-03T21:41:18.310Z,9.70
2018-01-03T21:43:47.755Z,8.30
2018-01-03T21:46:15.563Z,20.73
2018-01-03T21:48:43.222Z,11.90
2018-01-03T21:51:10.106Z,13.83
2018-01-03T21:53:38.590Z,12.77
2018-01-03T21:56:07.109Z,11.80
2018-01-03T21:58:34.342Z,22.83
2018-01-03T22:01:01.891Z,14.80
2018-01-03T22:03:28.807Z,16.47
2018-01-03T22:05:57.119Z,12.90
2018-01-03T22:08:25.357Z,12.93
2018-01-03T22:10:52.653Z,17.30
2018-01-03T22:13:20.535Z,19.97
2018-01-03T22:15:47.481Z,15.33
2018-01-03T22:18:14.476Z,11.33
2018-01-03T22:20:41.525Z,10.67
2018-01-03T22:23:09.222Z,11.90
2018-01-03T22:25:37.015Z,8.10
2018-01-03T22:28:03.983Z,15.30
2018-01-03T22:30:30.844Z,13.83
2018-01-03T22:32:57.842Z,9.37
2018-01-03T22:35:24.767Z,13.55
2018-01-03T22:37:52.502Z,15.50
2018-01-03T22:40:19.363Z,21.23
2018-01-03T22:42:46.327Z,9.60
2018-01-03T22:45:13.987Z,13.63
2018-01-03T22:47:41.701Z,11.50
2018-01-03T22:50:08.578Z,9.18
2018-01-03T22:52:35.470Z,11.27
2018-01-03T22:55:02.444Z,14.30
2018-01-03T22:57:29.318Z,12.80
2018-01-03T23:00:00.163Z,10.80
2018-01-03T23:02:27.244Z,11.10
2018-01-03T23:04:54.122Z,12.67
2018-01-03T23:07:21.082Z,12.07
2018-01-03T23:09:49.066Z,13.93
2018-01-03T23:12:16.067Z,13.60
2018-01-03T23:14:47.935Z,9.20
2018-01-03T23:17:14.887Z,16.58
2018-01-03T23:19:42.763Z,16.87
2018-01-03T23:22:16.226Z,15.45
2018-01-03T23:24:43.105Z,12.85
2018-01-03T23:27:15.119Z,13.17
2018-01-03T23:29:48.372Z,9.70
2018-01-03T23:32:15.316Z,9.55
2018-01-03T23:34:47.095Z,6.30
2018-01-03T23:37:14.019Z,13.00
2018-01-03T23:39:40.951Z,9.07
2018-01-03T23:42:07.920Z,9.20
2018-01-03T23:44:37.631Z,13.13
2018-01-03T23:47:07.779Z,10.68
2018-01-03T23:49:38.714Z,5.70
2018-01-03T23:52:19.085Z,7.18
2018-01-03T23:54:46.270Z,15.38
2018-01-03T23:57:13.215Z,9.77
2018-01-03T23:59:40.120Z,8.32
